createdAt,value
2018-01-15T00:05:31.483Z,-57
2018-01-15T00:15:31.542Z,-58
2018-01-15T00:25:31.533Z,-57
2018-01-15T00:35:31.634Z,-59
2018-01-15T00:45:31.566Z,-58
2018-01-15T00:55:31.626Z,-58
2018-01-15T01:05:31.584Z,-57
2018-01-15T01:15:31.627Z,-57
2018-01-15T01:25:31.638Z,-58
2018-01-15T01:35:31.531Z,-55
2018-01-15T01:45:31.594Z,-57
2018-01-15T01:55:31.554Z,-56
2018-01-15T02:05:31.634Z,-56
2018-01-15T02:15:31.664Z,-57
2018-01-15T02:25:31.674Z,-55
2018-01-15T02:35:31.632Z,-58
2018-01-15T02:45:31.716Z,-56
2018-01-15T02:55:31.643Z,-55
2018-01-15T03:05:31.591Z,-58
2018-01-15T03:15:31.664Z,-57
2018-01-15T03:25:31.565Z,-57
2018-01-15T03:35:31.678Z,-56
2018-01-15T03:45:31.673Z,-57
2018-01-15T03:55:31.741Z,-57
2018-01-15T04:05:31.677Z,-56
2018-01-15T04:15:31.733Z,-56
2018-01-15T04:25:31.739Z,-57
2018-01-15T04:35:31.783Z,-55
2018-01-15T04:45:31.727Z,-57
2018-01-15T04:55:31.703Z,-57
2018-01-15T05:05:31.764Z,-57
2018-01-15T05:15:31.817Z,-56
2018-01-15T05:25:31.832Z,-57
2018-01-15T05:35:31.812Z,-59
2018-01-15T05:45:31.745Z,-58
2018-01-15T05:55:31.772Z,-56
2018-01-15T06:05:31.822Z,-56
2018-01-15T06:15:31.764Z,-58
2018-01-15T06:25:31.725Z,-57
2018-01-15T06:35:31.799Z,-57
2018-01-15T06:45:31.813Z,-57
2018-01-15T06:55:31.858Z,-58
2018-01-15T07:05:31.803Z,-57
2018-01-15T07:15:31.948Z,-58
2018-01-15T07:25:31.811Z,-56
2018-01-15T07:35:32.267Z,-54
2018-01-15T07:45:31.968Z,-56
2018-01-15T07:55:31.980Z,-57
2018-01-15T08:05:31.858Z,-56
2018-01-15T08:15:31.926Z,-56
2018-01-15T08:25:31.889Z,-57
2018-01-15T08:35:32.545Z,-58
2018-01-15T08:45:32.018Z,-57
2018-01-15T08:55:31.964Z,-59
2018-01-15T09:05:31.991Z,-58
2018-01-15T09:15:31.964Z,-59
2018-01-15T09:25:32.036Z,-57
2018-01-15T09:35:31.902Z,-59
2018-01-15T09:45:32.024Z,-58
2018-01-15T09:55:31.989Z,-57
2018-01-15T10:05:32.014Z,-57
2018-01-15T10:15:31.981Z,-57
2018-01-15T10:25:31.981Z,-58
2018-01-15T10:35:31.999Z,-58
2018-01-15T10:45:32.045Z,-58
2018-01-15T10:55:32.507Z,-58
2018-01-15T11:05:32.019Z,-60
2018-01-15T11:15:32.246Z,-59
2018-01-15T11:25:32.194Z,-58
2018-01-15T11:35:32.750Z,-59
2018-01-15T11:45:32.059Z,-58
2018-01-15T11:55:32.043Z,-57
2018-01-15T12:05:31.989Z,-58
2018-01-15T12:15:32.077Z,-58
2018-01-15T12:25:32.039Z,-59
2018-01-15T12:35:32.238Z,-58
2018-01-15T12:45:32.042Z,-57
2018-01-15T12:55:32.149Z,-58
2018-01-15T13:05:32.130Z,-58
2018-01-15T13:15:32.171Z,-56
2018-01-15T13:25:32.120Z,-57
2018-01-15T13:35:32.187Z,-57
2018-01-15T13:45:32.189Z,-59
2018-01-15T13:55:32.497Z,-56
2018-01-15T14:05:32.290Z,-66
2018-01-15T14:15:32.487Z,-65
2018-01-15T14:25:32.428Z,-67
2018-01-15T14:35:32.310Z,-65
2018-01-15T14:45:32.252Z,-67
2018-01-15T14:55:33.562Z,-67
2018-01-15T15:05:32.287Z,-62
2018-01-15T15:15:32.219Z,-58
2018-01-15T15:25:32.327Z,-59
2018-01-15T15:35:32.270Z,-57
2018-01-15T15:45:32.557Z,-57
2018-01-15T15:55:32.335Z,-58
2018-01-15T16:05:32.310Z,-57
2018-01-15T16:15:32.370Z,-57
2018-01-15T16:25:32.326Z,-56
2018-01-15T16:35:32.409Z,-56
2018-01-15T16:45:32.368Z,-58
2018-01-15T16:55:32.398Z,-56
2018-01-15T17:05:32.373Z,-60
2018-01-15T17:15:32.951Z,-58
2018-01-15T17:25:32.656Z,-58
2018-01-15T17:35:32.398Z,-55
2018-01-15T17:45:32.423Z,-55
2018-01-15T17:55:32.356Z,-55
2018-01-15T18:05:32.411Z,-55
2018-01-15T18:15:32.433Z,-56
2018-01-15T18:25:32.510Z,-56
2018-01-15T18:35:32.430Z,-55
2018-01-15T18:45:32.509Z,-55
2018-01-15T18:55:32.436Z,-56
2018-01-15T19:05:32.748Z,-54
2018-01-15T19:15:32.664Z,-55
2018-01-15T19:25:32.541Z,-56
2018-01-15T19:35:32.713Z,-55
2018-01-15T19:45:32.482Z,-54
2018-01-15T19:55:33.449Z,-55
2018-01-15T20:05:35.180Z,-56
2018-01-15T20:15:32.590Z,-55
2018-01-15T20:25:33.289Z,-56
2018-01-15T20:35:32.631Z,-56
2018-01-15T20:45:32.870Z,-56
2018-01-15T20:55:32.562Z,-57
2018-01-15T21:05:32.812Z,-57
2018-01-15T21:15:32.542Z,-54
2018-01-15T21:25:32.740Z,-61
2018-01-15T21:35:33.195Z,-59
2018-01-15T21:45:32.976Z,-66
2018-01-15T21:55:32.586Z,-58
2018-01-15T22:05:32.570Z,-57
2018-01-15T22:15:32.639Z,-55
2018-01-15T22:25:32.924Z,-56
2018-01-15T22:35:32.679Z,-56
2018-01-15T22:45:32.612Z,-56
2018-01-15T22:55:32.714Z,-58
2018-01-15T23:05:32.746Z,-56
2018-01-15T23:15:32.746Z,-56
2018-01-15T23:25:32.724Z,-56
2018-01-15T23:35:32.723Z,-57
2018-01-15T23:45:32.733Z,-56
2018-01-15T23:55:32.722Z,-57
